sensor_id;sensor_type;location;lat;lon;timestamp;P1;durP1;ratioP1;P2;durP2;ratioP2
64188;SDS011;50493;50.970;10.082;2022-09-25T00:00:39;7.75;;;4.90;;
64188;SDS011;50493;50.970;10.082;2022-09-25T00:03:05;5.68;;;4.43;;
64188;SDS011;50493;50.970;10.082;2022-09-25T00:05:30;6.20;;;4.15;;
64188;SDS011;50493;50.970;10.082;2022-09-25T00:07:55;6.47;;;4.60;;
64188;SDS011;50493;50.970;10.082;2022-09-25T00:10:21;6.13;;;4.57;;
64188;SDS011;50493;50.970;10.082;2022-09-25T00:12:49;6.15;;;4.68;;
64188;SDS011;50493;50.970;10.082;2022-09-25T00:15:16;16.05;;;10.02;;
64188;SDS011;50493;50.970;10.082;2022-09-25T00:17:41;15.13;;;9.18;;
64188;SDS011;50493;50.970;10.082;2022-09-25T00:20:07;7.95;;;5.45;;
64188;SDS011;50493;50.970;10.082;2022-09-25T00:22:33;6.70;;;4.90;;
64188;SDS011;50493;50.970;10.082;2022-09-25T00:24:59;8.77;;;5.85;;
64188;SDS011;50493;50.970;10.082;2022-09-25T00:27:26;8.05;;;5.07;;
64188;SDS011;50493;50.970;10.082;2022-09-25T00:29:51;7.78;;;4.97;;
64188;SDS011;50493;50.970;10.082;2022-09-25T00:32:18;7.57;;;5.43;;
64188;SDS011;50493;50.970;10.082;2022-09-25T00:34:44;7.53;;;5.15;;
64188;SDS011;50493;50.970;10.082;2022-09-25T00:37:09;9.18;;;5.40;;
64188;SDS011;50493;50.970;10.082;2022-09-25T00:39:35;6.90;;;5.13;;
64188;SDS011;50493;50.970;10.082;2022-09-25T00:42:00;7.97;;;5.55;;
64188;SDS011;50493;50.970;10.082;2022-09-25T00:47:23;10.25;;;7.00;;
64188;SDS011;50493;50.970;10.082;2022-09-25T00:49:55;7.65;;;6.13;;
64188;SDS011;50493;50.970;10.082;2022-09-25T00:52:23;7.88;;;5.65;;
64188;SDS011;50493;50.970;10.082;2022-09-25T00:54:51;9.65;;;6.20;;
64188;SDS011;50493;50.970;10.082;2022-09-25T00:57:21;7.93;;;5.72;;
64188;SDS011;50493;50.970;10.082;2022-09-25T00:59:51;8.02;;;5.75;;
64188;SDS011;50493;50.970;10.082;2022-09-25T01:02:22;8.20;;;5.63;;
64188;SDS011;50493;50.970;10.082;2022-09-25T01:04:51;9.32;;;6.00;;
64188;SDS011;50493;50.970;10.082;2022-09-25T01:07:16;7.40;;;5.80;;
64188;SDS011;50493;50.970;10.082;2022-09-25T01:09:42;8.00;;;5.40;;
64188;SDS011;50493;50.970;10.082;2022-09-25T01:12:09;10.00;;;5.85;;
64188;SDS011;50493;50.970;10.082;2022-09-25T01:14:34;8.00;;;5.53;;
64188;SDS011;50493;50.970;10.082;2022-09-25T01:17:01;8.23;;;5.97;;
64188;SDS011;50493;50.970;10.082;2022-09-25T01:19:39;9.10;;;6.40;;
64188;SDS011;50493;50.970;10.082;2022-09-25T01:22:20;8.45;;;6.05;;
64188;SDS011;50493;50.970;10.082;2022-09-25T01:24:55;8.70;;;6.07;;
64188;SDS011;50493;50.970;10.082;2022-09-25T01:27:34;9.80;;;6.22;;
64188;SDS011;50493;50.970;10.082;2022-09-25T01:30:08;9.60;;;6.45;;
64188;SDS011;50493;50.970;10.082;2022-09-25T01:32:38;8.65;;;6.07;;
64188;SDS011;50493;50.970;10.082;2022-09-25T01:35:14;8.35;;;6.25;;
64188;SDS011;50493;50.970;10.082;2022-09-25T01:37:44;9.30;;;6.10;;
64188;SDS011;50493;50.970;10.082;2022-09-25T01:40:15;7.90;;;5.78;;
64188;SDS011;50493;50.970;10.082;2022-09-25T01:42:49;9.00;;;5.80;;
64188;SDS011;50493;50.970;10.082;2022-09-25T01:45:21;9.23;;;6.40;;
64188;SDS011;50493;50.970;10.082;2022-09-25T01:47:52;8.35;;;5.85;;
64188;SDS011;50493;50.970;10.082;2022-09-25T01:50:23;8.05;;;6.25;;
64188;SDS011;50493;50.970;10.082;2022-09-25T01:52:54;8.95;;;5.85;;
64188;SDS011;50493;50.970;10.082;2022-09-25T01:55:25;9.65;;;6.60;;
64188;SDS011;50493;50.970;10.082;2022-09-25T01:57:54;10.77;;;7.85;;
64188;SDS011;50493;50.970;10.082;2022-09-25T02:00:35;9.38;;;6.47;;
64188;SDS011;50493;50.970;10.082;2022-09-25T02:03:04;9.00;;;6.18;;
64188;SDS011;50493;50.970;10.082;2022-09-25T02:05:36;9.57;;;6.53;;
64188;SDS011;50493;50.970;10.082;2022-09-25T02:08:07;8.10;;;6.18;;
64188;SDS011;50493;50.970;10.082;2022-09-25T02:10:37;8.95;;;6.30;;
64188;SDS011;50493;50.970;10.082;2022-09-25T02:13:07;8.98;;;6.55;;
64188;SDS011;50493;50.970;10.082;2022-09-25T02:15:39;8.82;;;6.03;;
64188;SDS011;50493;50.970;10.082;2022-09-25T02:18:08;8.60;;;6.20;;
64188;SDS011;50493;50.970;10.082;2022-09-25T02:21:00;8.40;;;6.05;;
64188;SDS011;50493;50.970;10.082;2022-09-25T02:23:39;8.82;;;6.18;;
64188;SDS011;50493;50.970;10.082;2022-09-25T02:26:13;9.45;;;6.38;;
64188;SDS011;50493;50.970;10.082;2022-09-25T02:28:42;8.18;;;6.00;;
64188;SDS011;50493;50.970;10.082;2022-09-25T02:31:09;9.27;;;6.47;;
64188;SDS011;50493;50.970;10.082;2022-09-25T02:33:37;9.32;;;6.60;;
64188;SDS011;50493;50.970;10.082;2022-09-25T02:36:03;9.63;;;6.40;;
64188;SDS011;50493;50.970;10.082;2022-09-25T02:38:30;10.45;;;6.40;;
64188;SDS011;50493;50.970;10.082;2022-09-25T02:40:58;9.27;;;6.45;;
64188;SDS011;50493;50.970;10.082;2022-09-25T02:43:33;9.02;;;6.18;;
64188;SDS011;50493;50.970;10.082;2022-09-25T02:46:12;9.68;;;6.20;;
64188;SDS011;50493;50.970;10.082;2022-09-25T02:48:48;8.30;;;5.97;;
64188;SDS011;50493;50.970;10.082;2022-09-25T02:51:19;7.90;;;5.93;;
64188;SDS011;50493;50.970;10.082;2022-09-25T02:53:51;9.68;;;6.38;;
64188;SDS011;50493;50.970;10.082;2022-09-25T02:56:26;9.38;;;6.40;;
64188;SDS011;50493;50.970;10.082;2022-09-25T02:58:57;8.18;;;5.90;;
64188;SDS011;50493;50.970;10.082;2022-09-25T03:01:40;8.60;;;5.88;;
64188;SDS011;50493;50.970;10.082;2022-09-25T03:04:06;8.68;;;5.97;;
64188;SDS011;50493;50.970;10.082;2022-09-25T03:06:33;9.63;;;6.18;;
64188;SDS011;50493;50.970;10.082;2022-09-25T03:09:00;8.63;;;6.22;;
64188;SDS011;50493;50.970;10.082;2022-09-25T03:11:26;8.35;;;5.80;;
64188;SDS011;50493;50.970;10.082;2022-09-25T03:13:55;8.70;;;6.38;;
64188;SDS011;50493;50.970;10.082;2022-09-25T03:16:23;9.65;;;5.72;;
64188;SDS011;50493;50.970;10.082;2022-09-25T03:18:56;9.27;;;6.03;;
64188;SDS011;50493;50.970;10.082;2022-09-25T03:21:22;8.18;;;5.57;;
64188;SDS011;50493;50.970;10.082;2022-09-25T03:23:47;7.70;;;5.57;;
64188;SDS011;50493;50.970;10.082;2022-09-25T03:26:12;8.35;;;5.93;;
64188;SDS011;50493;50.970;10.082;2022-09-25T03:28:38;8.05;;;5.70;;
64188;SDS011;50493;50.970;10.082;2022-09-25T03:31:04;8.30;;;6.13;;
64188;SDS011;50493;50.970;10.082;2022-09-25T03:33:32;8.07;;;5.40;;
64188;SDS011;50493;50.970;10.082;2022-09-25T03:36:01;8.07;;;5.78;;
64188;SDS011;50493;50.970;10.082;2022-09-25T03:38:28;9.82;;;6.85;;
64188;SDS011;50493;50.970;10.082;2022-09-25T03:40:54;9.43;;;6.60;;
64188;SDS011;50493;50.970;10.082;2022-09-25T03:43:19;10.32;;;6.40;;
64188;SDS011;50493;50.970;10.082;2022-09-25T03:45:45;8.88;;;5.82;;
64188;SDS011;50493;50.970;10.082;2022-09-25T03:48:10;9.30;;;5.88;;
64188;SDS011;50493;50.970;10.082;2022-09-25T03:50:35;7.90;;;5.80;;
64188;SDS011;50493;50.970;10.082;2022-09-25T03:53:03;7.75;;;5.75;;
64188;SDS011;50493;50.970;10.082;2022-09-25T03:55:28;8.27;;;5.88;;
64188;SDS011;50493;50.970;10.082;2022-09-25T03:57:54;6.65;;;5.20;;
64188;SDS011;50493;50.970;10.082;2022-09-25T04:00:19;8.82;;;5.80;;
64188;SDS011;50493;50.970;10.082;2022-09-25T04:02:44;7.80;;;5.60;;
64188;SDS011;50493;50.970;10.082;2022-09-25T04:05:10;8.07;;;5.78;;
64188;SDS011;50493;50.970;10.082;2022-09-25T04:07:36;8.55;;;5.43;;
64188;SDS011;50493;50.970;10.082;2022-09-25T04:10:02;7.88;;;5.88;;
64188;SDS011;50493;50.970;10.082;2022-09-25T04:12:28;7.35;;;5.78;;
64188;SDS011;50493;50.970;10.082;2022-09-25T04:14:53;8.43;;;6.10;;
64188;SDS011;50493;50.970;10.082;2022-09-25T04:17:19;7.68;;;5.78;;
64188;SDS011;50493;50.970;10.082;2022-09-25T04:19:44;10.65;;;6.72;;
64188;SDS011;50493;50.970;10.082;2022-09-25T04:22:11;7.60;;;5.28;;
64188;SDS011;50493;50.970;10.082;2022-09-25T04:24:36;9.00;;;6.25;;
64188;SDS011;50493;50.970;10.082;2022-09-25T04:27:15;8.52;;;5.90;;
64188;SDS011;50493;50.970;10.082;2022-09-25T04:29:42;8.25;;;6.22;;
64188;SDS011;50493;50.970;10.082;2022-09-25T04:32:08;7.63;;;5.80;;
64188;SDS011;50493;50.970;10.082;2022-09-25T04:34:51;7.63;;;5.53;;
64188;SDS011;50493;50.970;10.082;2022-09-25T04:37:17;8.13;;;5.43;;
64188;SDS011;50493;50.970;10.082;2022-09-25T04:39:42;7.85;;;5.60;;
64188;SDS011;50493;50.970;10.082;2022-09-25T04:42:07;8.88;;;6.05;;
64188;SDS011;50493;50.970;10.082;2022-09-25T04:44:34;10.30;;;7.38;;
64188;SDS011;50493;50.970;10.082;2022-09-25T04:46:59;7.68;;;5.53;;
64188;SDS011;50493;50.970;10.082;2022-09-25T04:49:25;8.35;;;5.82;;
64188;SDS011;50493;50.970;10.082;2022-09-25T04:51:50;8.15;;;5.80;;
64188;SDS011;50493;50.970;10.082;2022-09-25T04:54:15;7.32;;;5.68;;
64188;SDS011;50493;50.970;10.082;2022-09-25T04:56:41;7.60;;;5.60;;
64188;SDS011;50493;50.970;10.082;2022-09-25T04:59:07;8.20;;;5.18;;
64188;SDS011;50493;50.970;10.082;2022-09-25T05:01:33;8.00;;;5.50;;
64188;SDS011;50493;50.970;10.082;2022-09-25T05:03:59;8.98;;;6.47;;
64188;SDS011;50493;50.970;10.082;2022-09-25T05:06:24;8.20;;;5.78;;
64188;SDS011;50493;50.970;10.082;2022-09-25T05:08:50;8.40;;;5.82;;
64188;SDS011;50493;50.970;10.082;2022-09-25T05:11:16;8.10;;;5.50;;
64188;SDS011;50493;50.970;10.082;2022-09-25T05:13:42;7.28;;;5.53;;
64188;SDS011;50493;50.970;10.082;2022-09-25T05:16:07;7.32;;;5.40;;
64188;SDS011;50493;50.970;10.082;2022-09-25T05:18:34;8.88;;;5.88;;
64188;SDS011;50493;50.970;10.082;2022-09-25T05:21:01;8.30;;;5.22;;
64188;SDS011;50493;50.970;10.082;2022-09-25T05:23:27;8.15;;;5.72;;
64188;SDS011;50493;50.970;10.082;2022-09-25T05:25:53;7.95;;;5.38;;
64188;SDS011;50493;50.970;10.082;2022-09-25T05:28:19;11.38;;;7.80;;
64188;SDS011;50493;50.970;10.082;2022-09-25T05:30:44;7.88;;;5.80;;
64188;SDS011;50493;50.970;10.082;2022-09-25T05:33:09;11.13;;;7.72;;
64188;SDS011;50493;50.970;10.082;2022-09-25T05:35:36;8.13;;;5.55;;
64188;SDS011;50493;50.970;10.082;2022-09-25T05:38:02;8.85;;;6.32;;
64188;SDS011;50493;50.970;10.082;2022-09-25T05:40:27;10.55;;;7.40;;
64188;SDS011;50493;50.970;10.082;2022-09-25T05:42:53;8.10;;;5.75;;
64188;SDS011;50493;50.970;10.082;2022-09-25T05:45:19;8.20;;;6.07;;
64188;SDS011;50493;50.970;10.082;2022-09-25T05:47:47;8.13;;;6.00;;
64188;SDS011;50493;50.970;10.082;2022-09-25T05:50:13;8.48;;;6.07;;
64188;SDS011;50493;50.970;10.082;2022-09-25T05:52:41;7.25;;;5.38;;
64188;SDS011;50493;50.970;10.082;2022-09-25T05:55:07;14.15;;;9.60;;
64188;SDS011;50493;50.970;10.082;2022-09-25T05:57:34;10.07;;;7.43;;
64188;SDS011;50493;50.970;10.082;2022-09-25T06:00:00;8.63;;;5.78;;
64188;SDS011;50493;50.970;10.082;2022-09-25T06:02:27;8.40;;;5.93;;
64188;SDS011;50493;50.970;10.082;2022-09-25T06:04:52;8.50;;;5.70;;
64188;SDS011;50493;50.970;10.082;2022-09-25T06:07:18;7.85;;;5.78;;
64188;SDS011;50493;50.970;10.082;2022-09-25T06:09:44;10.55;;;7.22;;
64188;SDS011;50493;50.970;10.082;2022-09-25T06:12:10;8.82;;;6.15;;
64188;SDS011;50493;50.970;10.082;2022-09-25T06:14:35;7.72;;;5.82;;
64188;SDS011;50493;50.970;10.082;2022-09-25T06:17:01;7.72;;;5.72;;
64188;SDS011;50493;50.970;10.082;2022-09-25T06:19:27;7.50;;;5.85;;
64188;SDS011;50493;50.970;10.082;2022-09-25T06:21:53;8.57;;;5.70;;
64188;SDS011;50493;50.970;10.082;2022-09-25T06:24:19;8.32;;;5.75;;
64188;SDS011;50493;50.970;10.082;2022-09-25T06:26:46;10.93;;;7.72;;
64188;SDS011;50493;50.970;10.082;2022-09-25T06:29:11;12.20;;;8.23;;
64188;SDS011;50493;50.970;10.082;2022-09-25T06:31:36;9.18;;;6.07;;
64188;SDS011;50493;50.970;10.082;2022-09-25T06:34:03;8.13;;;5.65;;
64188;SDS011;50493;50.970;10.082;2022-09-25T06:36:29;8.73;;;5.88;;
64188;SDS011;50493;50.970;10.082;2022-09-25T06:38:55;11.60;;;7.75;;
64188;SDS011;50493;50.970;10.082;2022-09-25T06:41:20;9.07;;;6.10;;
64188;SDS011;50493;50.970;10.082;2022-09-25T06:43:48;8.30;;;5.95;;
64188;SDS011;50493;50.970;10.082;2022-09-25T06:46:14;8.05;;;6.10;;
64188;SDS011;50493;50.970;10.082;2022-09-25T06:48:39;10.52;;;8.18;;
64188;SDS011;50493;50.970;10.082;2022-09-25T06:51:05;9.80;;;6.50;;
64188;SDS011;50493;50.970;10.082;2022-09-25T06:53:32;12.95;;;8.95;;
64188;SDS011;50493;50.970;10.082;2022-09-25T06:55:58;8.30;;;6.00;;
64188;SDS011;50493;50.970;10.082;2022-09-25T06:58:23;8.18;;;5.93;;
64188;SDS011;50493;50.970;10.082;2022-09-25T07:00:52;10.30;;;7.78;;
64188;SDS011;50493;50.970;10.082;2022-09-25T07:03:19;8.40;;;5.70;;
64188;SDS011;50493;50.970;10.082;2022-09-25T07:06:05;8.13;;;5.97;;
64188;SDS011;50493;50.970;10.082;2022-09-25T07:08:31;8.07;;;5.63;;
64188;SDS011;50493;50.970;10.082;2022-09-25T07:10:57;7.47;;;5.28;;
64188;SDS011;50493;50.970;10.082;2022-09-25T07:13:24;13.35;;;8.57;;
64188;SDS011;50493;50.970;10.082;2022-09-25T07:15:53;8.45;;;5.72;;
64188;SDS011;50493;50.970;10.082;2022-09-25T07:18:19;9.15;;;6.00;;
64188;SDS011;50493;50.970;10.082;2022-09-25T07:20:44;7.43;;;5.43;;
64188;SDS011;50493;50.970;10.082;2022-09-25T07:23:11;8.25;;;6.10;;
64188;SDS011;50493;50.970;10.082;2022-09-25T07:25:36;14.82;;;10.40;;
64188;SDS011;50493;50.970;10.082;2022-09-25T07:28:02;9.55;;;7.38;;
64188;SDS011;50493;50.970;10.082;2022-09-25T07:30:27;9.85;;;7.07;;
64188;SDS011;50493;50.970;10.082;2022-09-25T07:32:54;8.48;;;5.90;;
64188;SDS011;50493;50.970;10.082;2022-09-25T07:35:20;8.05;;;5.72;;
64188;SDS011;50493;50.970;10.082;2022-09-25T07:37:46;8.30;;;6.18;;
64188;SDS011;50493;50.970;10.082;2022-09-25T07:40:11;16.67;;;11.35;;
64188;SDS011;50493;50.970;10.082;2022-09-25T07:42:38;17.95;;;11.85;;
64188;SDS011;50493;50.970;10.082;2022-09-25T07:45:04;15.93;;;11.15;;
64188;SDS011;50493;50.970;10.082;2022-09-25T07:47:30;16.75;;;11.68;;
64188;SDS011;50493;50.970;10.082;2022-09-25T07:49:56;20.30;;;13.25;;
64188;SDS011;50493;50.970;10.082;2022-09-25T07:52:22;16.88;;;11.18;;
64188;SDS011;50493;50.970;10.082;2022-09-25T07:54:48;15.13;;;10.55;;
64188;SDS011;50493;50.970;10.082;2022-09-25T07:57:13;17.38;;;11.88;;
64188;SDS011;50493;50.970;10.082;2022-09-25T07:59:39;20.08;;;12.88;;
64188;SDS011;50493;50.970;10.082;2022-09-25T08:02:04;7.95;;;5.78;;
64188;SDS011;50493;50.970;10.082;2022-09-25T08:04:30;8.80;;;6.38;;
64188;SDS011;50493;50.970;10.082;2022-09-25T08:06:58;7.72;;;5.97;;
64188;SDS011;50493;50.970;10.082;2022-09-25T08:09:24;8.57;;;6.05;;
64188;SDS011;50493;50.970;10.082;2022-09-25T08:11:49;17.50;;;10.98;;
64188;SDS011;50493;50.970;10.082;2022-09-25T08:14:15;8.05;;;5.85;;
64188;SDS011;50493;50.970;10.082;2022-09-25T08:16:42;11.95;;;8.48;;
64188;SDS011;50493;50.970;10.082;2022-09-25T08:19:08;8.52;;;6.00;;
64188;SDS011;50493;50.970;10.082;2022-09-25T08:21:34;19.40;;;12.10;;
64188;SDS011;50493;50.970;10.082;2022-09-25T08:24:01;18.65;;;12.80;;
64188;SDS011;50493;50.970;10.082;2022-09-25T08:26:27;18.92;;;12.18;;
64188;SDS011;50493;50.970;10.082;2022-09-25T08:28:53;17.65;;;11.77;;
64188;SDS011;50493;50.970;10.082;2022-09-25T08:31:19;16.55;;;11.73;;
64188;SDS011;50493;50.970;10.082;2022-09-25T08:33:44;17.48;;;11.55;;
64188;SDS011;50493;50.970;10.082;2022-09-25T08:36:10;16.90;;;10.90;;
64188;SDS011;50493;50.970;10.082;2022-09-25T08:38:35;16.33;;;11.15;;
64188;SDS011;50493;50.970;10.082;2022-09-25T08:41:03;14.93;;;10.32;;
64188;SDS011;50493;50.970;10.082;2022-09-25T08:43:32;9.23;;;6.95;;
64188;SDS011;50493;50.970;10.082;2022-09-25T08:46:01;15.02;;;9.93;;
64188;SDS011;50493;50.970;10.082;2022-09-25T08:48:50;14.95;;;10.02;;
64188;SDS011;50493;50.970;10.082;2022-09-25T08:51:30;14.02;;;9.65;;
64188;SDS011;50493;50.970;10.082;2022-09-25T08:53:58;16.02;;;10.30;;
64188;SDS011;50493;50.970;10.082;2022-09-25T08:56:25;14.60;;;9.35;;
64188;SDS011;50493;50.970;10.082;2022-09-25T08:58:53;14.50;;;9.40;;
64188;SDS011;50493;50.970;10.082;2022-09-25T09:01:21;16.67;;;10.25;;
64188;SDS011;50493;50.970;10.082;2022-09-25T09:03:51;13.63;;;9.27;;
64188;SDS011;50493;50.970;10.082;2022-09-25T09:06:20;14.30;;;8.82;;
64188;SDS011;50493;50.970;10.082;2022-09-25T09:08:50;14.57;;;10.43;;
64188;SDS011;50493;50.970;10.082;2022-09-25T09:11:21;14.75;;;9.63;;
64188;SDS011;50493;50.970;10.082;2022-09-25T09:13:54;12.15;;;8.02;;
64188;SDS011;50493;50.970;10.082;2022-09-25T09:16:27;14.20;;;9.00;;
64188;SDS011;50493;50.970;10.082;2022-09-25T09:18:56;10.57;;;7.53;;
64188;SDS011;50493;50.970;10.082;2022-09-25T09:21:30;14.52;;;9.82;;
64188;SDS011;50493;50.970;10.082;2022-09-25T09:24:01;7.68;;;5.40;;
64188;SDS011;50493;50.970;10.082;2022-09-25T09:26:32;7.78;;;5.20;;
64188;SDS011;50493;50.970;10.082;2022-09-25T09:29:17;11.75;;;7.90;;
64188;SDS011;50493;50.970;10.082;2022-09-25T09:31:49;6.28;;;4.70;;
64188;SDS011;50493;50.970;10.082;2022-09-25T09:34:29;10.45;;;7.78;;
64188;SDS011;50493;50.970;10.082;2022-09-25T09:37:04;7.63;;;5.57;;
64188;SDS011;50493;50.970;10.082;2022-09-25T09:39:41;11.73;;;7.85;;
64188;SDS011;50493;50.970;10.082;2022-09-25T09:42:13;10.82;;;7.32;;
64188;SDS011;50493;50.970;10.082;2022-09-25T09:44:50;11.68;;;6.75;;
64188;SDS011;50493;50.970;10.082;2022-09-25T09:47:28;6.60;;;4.80;;
64188;SDS011;50493;50.970;10.082;2022-09-25T09:50:14;7.15;;;5.38;;
64188;SDS011;50493;50.970;10.082;2022-09-25T09:52:45;7.05;;;4.88;;
64188;SDS011;50493;50.970;10.082;2022-09-25T09:55:14;9.38;;;6.45;;
64188;SDS011;50493;50.970;10.082;2022-09-25T09:57:48;7.03;;;4.78;;
64188;SDS011;50493;50.970;10.082;2022-09-25T10:00:18;7.18;;;5.32;;
64188;SDS011;50493;50.970;10.082;2022-09-25T10:02:47;7.22;;;5.40;;
64188;SDS011;50493;50.970;10.082;2022-09-25T10:05:17;7.38;;;5.40;;
64188;SDS011;50493;50.970;10.082;2022-09-25T10:07:47;7.30;;;5.28;;
64188;SDS011;50493;50.970;10.082;2022-09-25T10:10:15;7.60;;;5.32;;
64188;SDS011;50493;50.970;10.082;2022-09-25T10:12:42;7.85;;;5.50;;
64188;SDS011;50493;50.970;10.082;2022-09-25T10:15:14;8.10;;;5.60;;
64188;SDS011;50493;50.970;10.082;2022-09-25T10:17:44;7.45;;;5.70;;
64188;SDS011;50493;50.970;10.082;2022-09-25T10:20:13;8.20;;;5.47;;
64188;SDS011;50493;50.970;10.082;2022-09-25T10:22:42;8.25;;;5.70;;
64188;SDS011;50493;50.970;10.082;2022-09-25T10:25:10;8.63;;;6.47;;
64188;SDS011;50493;50.970;10.082;2022-09-25T10:27:37;8.23;;;5.72;;
64188;SDS011;50493;50.970;10.082;2022-09-25T10:30:15;8.43;;;5.57;;
64188;SDS011;50493;50.970;10.082;2022-09-25T10:32:47;7.60;;;6.03;;
64188;SDS011;50493;50.970;10.082;2022-09-25T10:35:19;8.32;;;6.13;;
64188;SDS011;50493;50.970;10.082;2022-09-25T10:37:47;8.45;;;5.53;;
64188;SDS011;50493;50.970;10.082;2022-09-25T10:40:22;7.13;;;5.25;;
64188;SDS011;50493;50.970;10.082;2022-09-25T10:43:00;8.20;;;5.82;;
64188;SDS011;50493;50.970;10.082;2022-09-25T10:45:28;8.95;;;5.63;;
64188;SDS011;50493;50.970;10.082;2022-09-25T10:47:56;7.80;;;5.18;;
64188;SDS011;50493;50.970;10.082;2022-09-25T10:50:41;7.35;;;5.78;;
64188;SDS011;50493;50.970;10.082;2022-09-25T10:53:10;7.15;;;5.25;;
64188;SDS011;50493;50.970;10.082;2022-09-25T10:55:52;7.68;;;5.32;;
64188;SDS011;50493;50.970;10.082;2022-09-25T10:58:24;7.22;;;5.13;;
64188;SDS011;50493;50.970;10.082;2022-09-25T11:00:55;7.88;;;5.32;;
64188;SDS011;50493;50.970;10.082;2022-09-25T11:03:24;7.03;;;4.82;;
64188;SDS011;50493;50.970;10.082;2022-09-25T11:05:52;6.57;;;4.60;;
64188;SDS011;50493;50.970;10.082;2022-09-25T11:08:22;7.53;;;5.00;;
64188;SDS011;50493;50.970;10.082;2022-09-25T11:10:50;6.88;;;4.80;;
64188;SDS011;50493;50.970;10.082;2022-09-25T11:13:21;7.47;;;5.10;;
64188;SDS011;50493;50.970;10.082;2022-09-25T11:15:49;6.55;;;5.07;;
64188;SDS011;50493;50.970;10.082;2022-09-25T11:18:32;7.05;;;5.35;;
64188;SDS011;50493;50.970;10.082;2022-09-25T11:21:00;6.80;;;4.80;;
64188;SDS011;50493;50.970;10.082;2022-09-25T11:23:28;6.80;;;4.80;;
64188;SDS011;50493;50.970;10.082;2022-09-25T11:26:02;6.47;;;4.25;;
64188;SDS011;50493;50.970;10.082;2022-09-25T11:28:33;6.15;;;4.40;;
64188;SDS011;50493;50.970;10.082;2022-09-25T11:31:04;6.60;;;5.07;;
64188;SDS011;50493;50.970;10.082;2022-09-25T11:33:39;6.95;;;5.00;;
64188;SDS011;50493;50.970;10.082;2022-09-25T11:36:13;5.90;;;4.55;;
64188;SDS011;50493;50.970;10.082;2022-09-25T11:38:42;5.75;;;4.20;;
64188;SDS011;50493;50.970;10.082;2022-09-25T11:41:30;6.22;;;4.50;;
64188;SDS011;50493;50.970;10.082;2022-09-25T11:44:06;7.53;;;4.88;;
64188;SDS011;50493;50.970;10.082;2022-09-25T11:46:40;6.20;;;4.60;;
64188;SDS011;50493;50.970;10.082;2022-09-25T11:49:17;7.00;;;4.50;;
64188;SDS011;50493;50.970;10.082;2022-09-25T11:54:47;6.75;;;4.60;;
64188;SDS011;50493;50.970;10.082;2022-09-25T11:57:32;6.45;;;4.40;;
64188;SDS011;50493;50.970;10.082;2022-09-25T12:00:06;7.30;;;4.28;;
64188;SDS011;50493;50.970;10.082;2022-09-25T12:02:39;6.22;;;4.30;;
64188;SDS011;50493;50.970;10.082;2022-09-25T12:05:27;6.28;;;4.63;;
64188;SDS011;50493;50.970;10.082;2022-09-25T12:10:41;5.85;;;4.07;;
64188;SDS011;50493;50.970;10.082;2022-09-25T12:13:20;5.60;;;4.15;;
64188;SDS011;50493;50.970;10.082;2022-09-25T12:15:54;6.22;;;4.70;;
64188;SDS011;50493;50.970;10.082;2022-09-25T12:18:31;7.10;;;4.25;;
64188;SDS011;50493;50.970;10.082;2022-09-25T12:21:19;6.10;;;4.10;;
64188;SDS011;50493;50.970;10.082;2022-09-25T12:23:57;5.97;;;4.10;;
64188;SDS011;50493;50.970;10.082;2022-09-25T12:26:32;5.72;;;4.10;;
64188;SDS011;50493;50.970;10.082;2022-09-25T12:29:08;6.30;;;4.40;;
64188;SDS011;50493;50.970;10.082;2022-09-25T12:31:47;5.80;;;4.30;;
64188;SDS011;50493;50.970;10.082;2022-09-25T12:34:25;5.63;;;4.10;;
64188;SDS011;50493;50.970;10.082;2022-09-25T12:37:06;5.85;;;4.25;;
64188;SDS011;50493;50.970;10.082;2022-09-25T12:39:43;5.72;;;4.53;;
64188;SDS011;50493;50.970;10.082;2022-09-25T12:42:14;7.78;;;4.30;;
64188;SDS011;50493;50.970;10.082;2022-09-25T12:44:44;5.85;;;3.95;;
64188;SDS011;50493;50.970;10.082;2022-09-25T12:47:15;6.40;;;4.22;;
64188;SDS011;50493;50.970;10.082;2022-09-25T12:49:46;5.50;;;4.10;;
64188;SDS011;50493;50.970;10.082;2022-09-25T12:52:19;5.60;;;4.18;;
64188;SDS011;50493;50.970;10.082;2022-09-25T12:54:49;5.53;;;3.97;;
64188;SDS011;50493;50.970;10.082;2022-09-25T12:57:20;5.47;;;4.25;;
64188;SDS011;50493;50.970;10.082;2022-09-25T12:59:50;5.25;;;3.80;;
64188;SDS011;50493;50.970;10.082;2022-09-25T13:02:21;6.38;;;4.30;;
64188;SDS011;50493;50.970;10.082;2022-09-25T13:04:58;6.10;;;3.55;;
64188;SDS011;50493;50.970;10.082;2022-09-25T13:07:33;6.18;;;3.80;;
64188;SDS011;50493;50.970;10.082;2022-09-25T13:10:06;5.40;;;3.40;;
64188;SDS011;50493;50.970;10.082;2022-09-25T13:12:43;5.00;;;3.03;;
64188;SDS011;50493;50.970;10.082;2022-09-25T13:15:12;4.85;;;2.75;;
64188;SDS011;50493;50.970;10.082;2022-09-25T13:17:41;4.78;;;3.53;;
64188;SDS011;50493;50.970;10.082;2022-09-25T13:23:17;6.78;;;3.67;;
64188;SDS011;50493;50.970;10.082;2022-09-25T13:28:25;4.93;;;3.70;;
64188;SDS011;50493;50.970;10.082;2022-09-25T13:30:57;4.72;;;3.60;;
64188;SDS011;50493;50.970;10.082;2022-09-25T13:33:25;4.53;;;3.33;;
64188;SDS011;50493;50.970;10.082;2022-09-25T13:36:00;5.20;;;2.95;;
64188;SDS011;50493;50.970;10.082;2022-09-25T13:38:32;3.50;;;2.10;;
64188;SDS011;50493;50.970;10.082;2022-09-25T13:41:22;5.28;;;3.50;;
64188;SDS011;50493;50.970;10.082;2022-09-25T13:43:48;6.20;;;3.00;;
64188;SDS011;50493;50.970;10.082;2022-09-25T13:46:54;6.07;;;2.50;;
64188;SDS011;50493;50.970;10.082;2022-09-25T13:50:05;6.32;;;3.30;;
64188;SDS011;50493;50.970;10.082;2022-09-25T13:55:42;5.03;;;3.13;;
64188;SDS011;50493;50.970;10.082;2022-09-25T14:01:33;4.88;;;3.63;;
64188;SDS011;50493;50.970;10.082;2022-09-25T14:04:02;5.32;;;2.97;;
64188;SDS011;50493;50.970;10.082;2022-09-25T14:06:35;4.47;;;3.08;;
64188;SDS011;50493;50.970;10.082;2022-09-25T14:09:04;4.90;;;2.75;;
64188;SDS011;50493;50.970;10.082;2022-09-25T14:11:33;3.97;;;2.70;;
64188;SDS011;50493;50.970;10.082;2022-09-25T14:14:03;4.38;;;2.80;;
64188;SDS011;50493;50.970;10.082;2022-09-25T14:16:32;5.28;;;3.00;;
64188;SDS011;50493;50.970;10.082;2022-09-25T14:19:01;5.88;;;3.40;;
64188;SDS011;50493;50.970;10.082;2022-09-25T14:21:28;3.90;;;2.60;;
64188;SDS011;50493;50.970;10.082;2022-09-25T14:24:11;4.53;;;2.95;;
64188;SDS011;50493;50.970;10.082;2022-09-25T14:26:43;5.38;;;3.00;;
64188;SDS011;50493;50.970;10.082;2022-09-25T14:29:12;5.53;;;3.30;;
64188;SDS011;50493;50.970;10.082;2022-09-25T14:31:40;4.22;;;3.00;;
64188;SDS011;50493;50.970;10.082;2022-09-25T14:34:17;4.45;;;3.10;;
64188;SDS011;50493;50.970;10.082;2022-09-25T14:36:56;4.32;;;3.03;;
64188;SDS011;50493;50.970;10.082;2022-09-25T14:42:07;5.53;;;2.90;;
64188;SDS011;50493;50.970;10.082;2022-09-25T14:44:53;4.93;;;2.92;;
64188;SDS011;50493;50.970;10.082;2022-09-25T14:47:43;4.88;;;3.03;;
64188;SDS011;50493;50.970;10.082;2022-09-25T14:50:14;4.30;;;2.83;;
64188;SDS011;50493;50.970;10.082;2022-09-25T14:52:44;6.10;;;2.92;;
64188;SDS011;50493;50.970;10.082;2022-09-25T14:55:14;5.40;;;3.20;;
64188;SDS011;50493;50.970;10.082;2022-09-25T14:57:40;4.13;;;2.67;;
64188;SDS011;50493;50.970;10.082;2022-09-25T15:00:06;4.00;;;2.70;;
64188;SDS011;50493;50.970;10.082;2022-09-25T15:02:40;4.90;;;2.88;;
64188;SDS011;50493;50.970;10.082;2022-09-25T15:05:17;3.90;;;2.70;;
64188;SDS011;50493;50.970;10.082;2022-09-25T15:07:52;5.53;;;3.17;;
64188;SDS011;50493;50.970;10.082;2022-09-25T15:10:25;4.35;;;2.35;;